createdAt,value
2019-03-27T00:00:50.499Z,5.10
2019-03-27T00:01:50.423Z,5.07
2019-03-27T00:02:50.364Z,5.11
2019-03-27T00:03:50.309Z,5.08
2019-03-27T00:04:50.255Z,5.16
2019-03-27T00:05:50.239Z,5.11
2019-03-27T00:06:50.143Z,5.11
2019-03-27T00:13:57.051Z,5.10
2019-03-27T00:14:56.988Z,5.11
2019-03-27T00:15:56.958Z,5.10
2019-03-27T00:16:56.879Z,5.11
2019-03-27T00:17:56.821Z,5.11
2019-03-27T00:18:56.767Z,5.06
2019-03-27T00:19:56.715Z,5.06
2019-03-27T00:20:56.679Z,5.08
2019-03-27T00:21:56.595Z,5.01
2019-03-27T00:22:56.532Z,5.01
2019-03-27T00:23:56.487Z,5.03
2019-03-27T00:24:56.426Z,4.96
2019-03-27T00:25:56.400Z,4.99
2019-03-27T00:26:56.319Z,5.01
2019-03-27T00:27:56.263Z,4.95
2019-03-27T00:28:56.204Z,4.96
2019-03-27T00:29:56.153Z,4.92
2019-03-27T00:30:56.117Z,4.93
2019-03-27T00:31:56.038Z,4.86
2019-03-27T00:32:55.982Z,4.92
2019-03-27T00:33:55.930Z,4.90
2019-03-27T00:34:55.871Z,4.89
2019-03-27T00:35:55.856Z,4.92
2019-03-27T00:36:55.763Z,4.90
2019-03-27T00:37:55.710Z,4.83
2019-03-27T00:38:55.646Z,4.92
2019-03-27T00:39:55.591Z,4.92
2019-03-27T00:40:55.535Z,4.88
2019-03-27T00:41:55.504Z,4.83
2019-03-27T00:42:55.424Z,4.79
2019-03-27T00:43:55.369Z,4.76
2019-03-27T00:44:55.313Z,4.73
2019-03-27T00:45:55.265Z,4.77
2019-03-27T00:46:55.225Z,4.77
2019-03-27T00:47:55.144Z,4.69
2019-03-27T00:48:55.089Z,4.83
2019-03-27T00:49:55.032Z,4.76
2019-03-27T00:50:54.977Z,4.69
2019-03-27T00:51:54.942Z,4.76
2019-03-27T00:52:54.866Z,4.86
2019-03-27T00:53:54.816Z,4.73
2019-03-27T00:54:54.751Z,4.76
2019-03-27T00:55:54.697Z,4.71
2019-03-27T00:56:54.664Z,4.70
2019-03-27T00:57:54.581Z,4.71
2019-03-27T00:58:54.534Z,4.69
2019-03-27T00:59:54.470Z,4.77
2019-03-27T01:00:54.412Z,4.63
2019-03-27T01:01:54.386Z,4.64
2019-03-27T01:02:54.309Z,4.63
2019-03-27T01:03:54.250Z,4.83
2019-03-27T01:05:02.086Z,4.77
2019-03-27T01:05:54.141Z,4.71
2019-03-27T01:06:54.102Z,4.71
2019-03-27T01:07:54.024Z,4.73
2019-03-27T01:08:53.968Z,4.83
2019-03-27T01:09:53.913Z,4.71
2019-03-27T01:10:53.858Z,4.76
2019-03-27T01:11:53.829Z,4.85
2019-03-27T01:12:53.742Z,4.89
2019-03-27T01:13:53.686Z,4.89
2019-03-27T01:14:53.632Z,4.83
2019-03-27T01:15:53.578Z,4.73
2019-03-27T01:16:53.541Z,4.85
2019-03-27T01:17:53.467Z,4.73
2019-03-27T01:18:53.406Z,4.77
2019-03-27T01:19:53.354Z,4.77
2019-03-27T01:20:53.297Z,4.77
2019-03-27T01:21:53.267Z,4.77
2019-03-27T01:22:53.201Z,4.77
2019-03-27T01:23:53.124Z,4.71
2019-03-27T01:24:53.081Z,4.69
2019-03-27T01:25:53.014Z,4.74
2019-03-27T01:26:52.980Z,4.74
2019-03-27T01:27:52.980Z,4.71
2019-03-27T01:28:52.850Z,4.70
2019-03-27T01:29:52.792Z,4.70
2019-03-27T01:30:52.737Z,4.79
2019-03-27T01:31:52.710Z,4.71
2019-03-27T01:32:52.624Z,4.74
2019-03-27T01:33:52.563Z,4.74
2019-03-27T01:34:52.518Z,4.70
2019-03-27T01:35:52.456Z,4.77
2019-03-27T01:36:52.421Z,4.73
2019-03-27T01:37:52.345Z,4.79
2019-03-27T01:38:52.286Z,4.76
2019-03-27T01:39:52.234Z,4.67
2019-03-27T01:40:52.169Z,4.77
2019-03-27T01:41:52.144Z,4.76
2019-03-27T01:42:52.072Z,4.83
2019-03-27T01:43:52.009Z,4.88
2019-03-27T01:44:51.954Z,4.85
2019-03-27T01:45:53.357Z,4.83
2019-03-27T01:46:51.866Z,4.85
2019-03-27T01:47:51.785Z,4.85
2019-03-27T01:48:51.732Z,4.77
2019-03-27T01:49:51.674Z,4.85
2019-03-27T01:50:51.620Z,4.80
2019-03-27T01:51:51.586Z,4.80
2019-03-27T01:52:51.506Z,4.85
2019-03-27T01:53:51.451Z,4.89
2019-03-27T01:54:51.401Z,4.85
2019-03-27T01:55:51.340Z,4.88
2019-03-27T01:56:51.309Z,4.79
2019-03-27T01:57:51.225Z,4.86
2019-03-27T01:58:51.170Z,4.83
2019-03-27T01:59:51.114Z,4.83
2019-03-27T02:00:51.059Z,4.77
2019-03-27T02:01:51.033Z,4.83
2019-03-27T02:02:50.973Z,4.86
2019-03-27T02:03:50.893Z,4.70
2019-03-27T02:04:50.834Z,4.67
2019-03-27T02:05:50.784Z,4.66
2019-03-27T02:06:50.728Z,4.67
2019-03-27T02:07:50.691Z,4.69
2019-03-27T02:08:50.613Z,4.70
2019-03-27T02:09:50.553Z,4.63
2019-03-27T02:10:50.501Z,4.61
2019-03-27T02:11:50.446Z,4.76
2019-03-27T02:12:50.415Z,4.76
2019-03-27T02:13:50.338Z,4.74
2019-03-27T02:14:50.277Z,4.73
2019-03-27T02:15:50.221Z,4.73
2019-03-27T02:16:50.165Z,4.71
2019-03-27T02:17:50.129Z,4.71
2019-03-27T02:18:50.050Z,4.80
2019-03-27T02:19:50.001Z,4.73
2019-03-27T02:20:49.939Z,4.71
2019-03-27T02:21:49.885Z,4.74
2019-03-27T02:22:49.852Z,4.77
2019-03-27T02:23:49.773Z,4.71
2019-03-27T02:24:49.745Z,4.80
2019-03-27T02:25:49.666Z,4.71
2019-03-27T02:26:49.604Z,4.77
2019-03-27T02:27:49.576Z,4.79
2019-03-27T02:28:49.492Z,4.80
2019-03-27T02:29:49.432Z,4.88
2019-03-27T02:30:49.379Z,4.88
2019-03-27T02:31:49.327Z,4.79
2019-03-27T02:32:49.301Z,4.85
2019-03-27T02:33:49.211Z,4.86
2019-03-27T02:34:49.161Z,4.77
2019-03-27T02:35:49.104Z,4.88
2019-03-27T02:36:49.047Z,4.85
2019-03-27T02:37:49.022Z,4.88
2019-03-27T02:38:48.943Z,4.86
2019-03-27T02:39:48.880Z,4.86
2019-03-27T02:40:48.821Z,4.80
2019-03-27T02:41:48.769Z,4.88
2019-03-27T02:42:48.729Z,4.88
2019-03-27T02:43:48.659Z,4.80
2019-03-27T02:44:48.601Z,4.88
2019-03-27T02:45:48.545Z,4.85
2019-03-27T02:46:48.485Z,4.90
2019-03-27T02:47:48.457Z,4.86
2019-03-27T02:48:48.376Z,4.88
2019-03-27T02:49:48.321Z,4.86
2019-03-27T02:50:48.277Z,4.90
2019-03-27T02:51:48.207Z,4.80
2019-03-27T02:52:48.185Z,4.83
2019-03-27T02:53:48.096Z,4.79
2019-03-27T02:54:48.047Z,4.89
2019-03-27T02:55:47.997Z,4.83
2019-03-27T02:56:47.936Z,4.80
2019-03-27T02:57:47.899Z,4.92
2019-03-27T02:58:47.825Z,4.76
2019-03-27T02:59:47.767Z,4.73
2019-03-27T03:00:47.714Z,4.76
2019-03-27T03:01:48.274Z,4.73
2019-03-27T03:02:47.616Z,4.74
2019-03-27T03:03:47.539Z,4.71
2019-03-27T03:04:47.489Z,4.77
2019-03-27T03:05:47.435Z,4.67
2019-03-27T03:06:47.368Z,4.67
2019-03-27T03:07:47.343Z,4.61
2019-03-27T03:08:47.269Z,4.58
2019-03-27T03:09:47.205Z,4.61
2019-03-27T03:10:47.151Z,4.66
2019-03-27T03:11:47.091Z,4.59
2019-03-27T03:12:47.059Z,4.61
2019-03-27T03:13:46.980Z,4.64
2019-03-27T03:14:46.932Z,4.66
2019-03-27T03:15:46.901Z,4.61
2019-03-27T03:16:46.809Z,4.48
2019-03-27T03:17:46.791Z,4.51
2019-03-27T03:18:46.704Z,4.52
2019-03-27T03:19:46.648Z,4.56
2019-03-27T03:20:46.589Z,4.51
2019-03-27T03:21:46.532Z,4.48
2019-03-27T03:22:46.474Z,4.53
2019-03-27T03:23:46.449Z,4.46
2019-03-27T03:24:46.362Z,4.48
2019-03-27T03:25:46.307Z,4.53
2019-03-27T03:26:50.453Z,4.49
2019-03-27T03:27:46.197Z,4.53
2019-03-27T03:28:46.162Z,4.55
2019-03-27T03:29:46.088Z,4.51
2019-03-27T03:30:46.027Z,4.49
2019-03-27T03:31:45.981Z,4.52
2019-03-27T03:32:45.938Z,4.49
2019-03-27T03:33:45.907Z,4.41
2019-03-27T03:34:45.807Z,4.43
2019-03-27T03:35:45.744Z,4.51
2019-03-27T03:36:45.694Z,4.48
2019-03-27T03:37:45.639Z,4.46
2019-03-27T03:38:45.613Z,4.35
2019-03-27T03:39:45.524Z,4.38
2019-03-27T03:40:45.469Z,4.40
2019-03-27T03:41:45.419Z,4.45
2019-03-27T03:42:45.357Z,4.35
2019-03-27T03:43:45.322Z,4.37
2019-03-27T03:44:45.243Z,4.31
2019-03-27T03:45:45.188Z,4.41
2019-03-27T03:46:58.757Z,4.30
2019-03-27T03:47:45.073Z,4.35
2019-03-27T03:48:45.049Z,4.35
2019-03-27T03:49:44.965Z,4.28
2019-03-27T03:50:44.916Z,4.31
2019-03-27T03:51:44.851Z,4.34
2019-03-27T03:52:46.039Z,4.43
2019-03-27T03:53:44.759Z,4.35
2019-03-27T03:54:44.695Z,4.40
2019-03-27T03:55:44.621Z,4.35
2019-03-27T03:56:44.571Z,4.35
2019-03-27T03:57:44.514Z,4.33
2019-03-27T03:58:44.481Z,4.34
2019-03-27T03:59:44.400Z,4.35
2019-03-27T04:00:44.350Z,4.49
2019-03-27T04:01:44.289Z,4.43
2019-03-27T04:02:44.234Z,4.33
2019-03-27T04:03:44.197Z,4.28
2019-03-27T04:04:44.119Z,4.28
2019-03-27T04:05:44.063Z,4.52
2019-03-27T04:06:44.015Z,4.35
2019-03-27T04:07:43.953Z,4.31
2019-03-27T04:08:43.921Z,4.45
2019-03-27T04:09:43.842Z,4.31
2019-03-27T04:10:43.901Z,4.34
2019-03-27T04:11:43.730Z,4.35
2019-03-27T04:12:43.672Z,4.30
2019-03-27T04:13:43.643Z,4.30
2019-03-27T04:14:43.561Z,4.28
2019-03-27T04:15:43.507Z,4.38
2019-03-27T04:16:43.448Z,4.33
2019-03-27T04:17:43.399Z,4.37
2019-03-27T04:18:43.360Z,4.27
2019-03-27T04:19:43.279Z,4.37
2019-03-27T04:20:43.264Z,4.40
2019-03-27T04:21:43.176Z,4.31
2019-03-27T04:22:43.114Z,4.37
2019-03-27T04:23:43.083Z,4.35
2019-03-27T04:24:43.000Z,4.31
2019-03-27T04:26:07.143Z,4.31
2019-03-27T04:26:42.886Z,4.34
2019-03-27T04:27:42.825Z,4.28
2019-03-27T04:28:42.800Z,4.33
2019-03-27T04:29:42.717Z,4.31
2019-03-27T04:30:42.658Z,4.45
2019-03-27T04:31:42.603Z,4.33
2019-03-27T04:32:42.556Z,4.38
2019-03-27T04:33:42.520Z,4.37
2019-03-27T04:34:42.435Z,4.31
2019-03-27T04:35:42.381Z,4.38
2019-03-27T04:36:42.321Z,4.40
2019-03-27T04:37:42.269Z,4.41
2019-03-27T04:38:42.236Z,4.46
2019-03-27T04:39:42.156Z,4.33
2019-03-27T04:40:42.100Z,4.35
2019-03-27T04:41:42.045Z,4.45
2019-03-27T04:42:41.991Z,4.51
2019-03-27T04:43:41.951Z,4.43
2019-03-27T04:44:41.878Z,4.48
2019-03-27T04:45:41.820Z,4.56
2019-03-27T04:46:41.760Z,4.49
2019-03-27T04:47:41.704Z,4.55
2019-03-27T04:48:41.673Z,4.46
2019-03-27T04:49:41.593Z,4.58
2019-03-27T04:50:41.540Z,4.56
2019-03-27T04:51:41.483Z,4.61
2019-03-27T04:52:41.422Z,4.59
2019-03-27T04:53:41.398Z,4.66
2019-03-27T04:54:41.311Z,4.64
2019-03-27T04:55:41.255Z,4.66
2019-03-27T04:56:41.204Z,4.69
2019-03-27T04:57:41.145Z,4.69
2019-03-27T04:58:41.115Z,4.69
2019-03-27T04:59:41.066Z,4.67
2019-03-27T05:00:40.973Z,4.74
2019-03-27T05:01:40.927Z,4.67
2019-03-27T05:02:40.866Z,4.69
2019-03-27T05:03:40.814Z,4.69
2019-03-27T05:04:40.774Z,4.86
2019-03-27T05:05:40.699Z,4.71
2019-03-27T05:06:40.640Z,4.85
2019-03-27T05:07:40.586Z,4.85
2019-03-27T05:08:40.530Z,4.86
2019-03-27T05:09:40.498Z,4.88
2019-03-27T05:10:40.429Z,4.86
2019-03-27T05:11:40.368Z,4.90
2019-03-27T05:12:40.317Z,4.86
2019-03-27T05:13:40.251Z,4.92
2019-03-27T05:14:40.220Z,4.95
2019-03-27T05:15:40.150Z,4.98
2019-03-27T05:16:40.082Z,4.93
2019-03-27T05:17:45.912Z,4.89
2019-03-27T05:18:39.976Z,4.96
2019-03-27T05:19:39.934Z,4.95
2019-03-27T05:20:39.860Z,4.95
2019-03-27T05:21:39.807Z,4.98
2019-03-27T05:22:39.745Z,4.92
2019-03-27T05:23:39.695Z,5.01
2019-03-27T05:24:39.654Z,5.03
2019-03-27T05:25:39.584Z,5.01
2019-03-27T05:26:39.527Z,5.08
2019-03-27T05:27:39.470Z,5.04
2019-03-27T05:28:39.412Z,5.01
2019-03-27T05:29:39.382Z,5.07
2019-03-27T05:30:39.302Z,5.06
2019-03-27T05:31:39.250Z,5.11
2019-03-27T05:32:39.196Z,5.13
2019-03-27T05:33:39.137Z,5.06
2019-03-27T05:34:39.103Z,5.10
2019-03-27T05:35:39.022Z,5.16
2019-03-27T05:36:38.974Z,5.16
2019-03-27T05:37:38.910Z,5.08
2019-03-27T05:38:38.851Z,5.16
2019-03-27T05:39:38.822Z,5.16
2019-03-27T05:40:38.743Z,5.14
2019-03-27T05:41:38.688Z,5.21
2019-03-27T05:42:38.638Z,5.22
2019-03-27T05:43:38.618Z,5.16
2019-03-27T05:44:38.538Z,5.17
2019-03-27T05:45:38.463Z,5.19
2019-03-27T05:46:38.405Z,5.19
2019-03-27T05:47:38.348Z,5.26
2019-03-27T05:48:38.297Z,5.22
2019-03-27T05:49:38.270Z,5.24
2019-03-27T05:50:38.182Z,5.24
2019-03-27T05:51:38.127Z,5.22
2019-03-27T05:52:38.092Z,5.22
2019-03-27T05:53:38.012Z,5.31
2019-03-27T05:54:37.985Z,5.32
2019-03-27T05:55:37.899Z,5.29
2019-03-27T05:56:37.845Z,5.26
2019-03-27T05:57:37.794Z,5.25
2019-03-27T05:58:37.735Z,5.31
2019-03-27T05:59:37.708Z,5.25
2019-03-27T06:00:37.625Z,5.29
2019-03-27T06:01:37.565Z,5.31
2019-03-27T06:02:37.511Z,5.32
2019-03-27T06:03:37.450Z,5.36
2019-03-27T06:04:37.420Z,5.39
2019-03-27T06:05:37.344Z,5.35
2019-03-27T06:06:37.284Z,5.42
2019-03-27T06:07:37.231Z,5.36
2019-03-27T06:08:37.174Z,5.43
2019-03-27T06:09:37.143Z,5.43
2019-03-27T06:10:37.068Z,5.44
2019-03-27T06:11:37.013Z,5.36
2019-03-27T06:12:36.954Z,5.49
2019-03-27T06:13:36.902Z,5.47
2019-03-27T06:14:36.861Z,5.47
2019-03-27T06:15:36.857Z,5.42
2019-03-27T06:16:36.729Z,5.49
2019-03-27T06:17:36.686Z,5.49
2019-03-27T06:18:36.614Z,5.46
2019-03-27T06:19:36.583Z,5.51
2019-03-27T06:20:36.505Z,5.44
2019-03-27T06:21:36.450Z,5.53
2019-03-27T06:22:36.400Z,5.53
2019-03-27T06:23:36.341Z,5.49
2019-03-27T06:24:36.302Z,5.54
2019-03-27T06:25:36.224Z,5.49
2019-03-27T06:26:36.169Z,5.53
2019-03-27T06:27:36.117Z,5.46
2019-03-27T06:28:36.057Z,5.50
2019-03-27T06:29:36.021Z,5.53
2019-03-27T06:30:35.948Z,5.59
2019-03-27T06:31:35.887Z,5.53
2019-03-27T06:32:35.837Z,5.71
2019-03-27T06:33:35.786Z,5.59
2019-03-27T06:34:35.748Z,5.59
2019-03-27T06:35:35.678Z,5.57
2019-03-27T06:36:35.614Z,5.61
2019-03-27T06:37:35.555Z,5.58
2019-03-27T06:38:35.498Z,5.59
2019-03-27T06:39:35.477Z,5.54
2019-03-27T06:40:35.382Z,5.57
2019-03-27T06:41:35.333Z,5.54
2019-03-27T06:42:35.287Z,5.54
2019-03-27T06:43:35.222Z,5.54
2019-03-27T06:44:35.196Z,5.61
2019-03-27T06:45:35.118Z,5.62
2019-03-27T06:46:35.052Z,5.67
2019-03-27T06:47:35.004Z,5.68
2019-03-27T06:48:34.941Z,5.69
2019-03-27T06:49:34.913Z,5.69
2019-03-27T06:50:34.826Z,5.72
2019-03-27T06:51:40.416Z,5.71
2019-03-27T06:52:34.790Z,5.68
2019-03-27T06:53:34.663Z,5.69
2019-03-27T06:54:34.633Z,5.69
2019-03-27T06:55:34.561Z,5.67
2019-03-27T06:56:34.495Z,5.69
2019-03-27T06:57:34.442Z,5.68
2019-03-27T06:58:34.386Z,5.69
2019-03-27T06:59:34.358Z,5.79
2019-03-27T07:00:34.277Z,5.71
2019-03-27T07:01:34.217Z,5.72
2019-03-27T07:02:34.166Z,5.76
2019-03-27T07:03:34.110Z,5.80
2019-03-27T07:04:34.074Z,5.77
2019-03-27T07:05:33.993Z,5.87
2019-03-27T07:06:33.940Z,5.89
2019-03-27T07:07:33.884Z,5.94
2019-03-27T07:08:33.830Z,5.89
2019-03-27T07:09:33.797Z,5.94
2019-03-27T07:10:33.720Z,5.98
2019-03-27T07:11:33.659Z,5.98
2019-03-27T07:12:33.608Z,6.03
2019-03-27T07:13:33.558Z,6.11
2019-03-27T07:14:33.518Z,6.18
2019-03-27T07:15:35.773Z,6.13
2019-03-27T07:16:33.387Z,6.19
2019-03-27T07:17:33.337Z,6.11
2019-03-27T07:18:40.043Z,6.03
2019-03-27T07:19:33.248Z,6.04
2019-03-27T07:20:33.161Z,6.05
2019-03-27T07:21:33.109Z,6.15
2019-03-27T07:22:33.057Z,6.11
2019-03-27T07:23:32.998Z,6.18
2019-03-27T07:24:32.995Z,6.34
2019-03-27T07:25:32.892Z,6.29
2019-03-27T07:26:32.836Z,6.32
2019-03-27T07:27:32.776Z,6.30
2019-03-27T07:28:32.718Z,6.38
2019-03-27T07:29:32.667Z,6.37
2019-03-27T07:30:32.645Z,6.47
2019-03-27T07:31:32.555Z,6.41
2019-03-27T07:32:32.504Z,6.48
2019-03-27T07:33:32.445Z,6.53
2019-03-27T07:34:32.394Z,6.60
2019-03-27T07:35:32.366Z,6.49
2019-03-27T07:36:32.284Z,6.56
2019-03-27T07:37:32.233Z,6.49
2019-03-27T07:38:32.175Z,6.57
2019-03-27T07:39:32.112Z,6.62
2019-03-27T07:40:32.090Z,6.59
2019-03-27T07:41:32.009Z,6.49
2019-03-27T07:42:31.958Z,6.55
2019-03-27T07:43:31.900Z,6.59
2019-03-27T07:44:31.846Z,6.57
2019-03-27T07:45:31.808Z,6.62
2019-03-27T07:46:31.736Z,6.66
2019-03-27T07:47:31.681Z,6.65
2019-03-27T07:48:31.627Z,6.63
2019-03-27T07:49:31.574Z,6.47
2019-03-27T07:50:31.540Z,6.53
2019-03-27T07:51:31.465Z,6.57
2019-03-27T07:52:31.416Z,6.60
2019-03-27T07:53:31.355Z,6.65
2019-03-27T07:54:31.293Z,6.71
2019-03-27T07:55:31.262Z,6.73
2019-03-27T07:56:31.192Z,6.78
2019-03-27T07:57:31.138Z,6.67
2019-03-27T07:58:31.079Z,6.74
2019-03-27T07:59:31.029Z,6.74
2019-03-27T08:00:30.992Z,6.81
2019-03-27T08:01:30.919Z,6.81
2019-03-27T08:02:30.858Z,6.83
2019-03-27T08:03:30.807Z,6.95
2019-03-27T08:04:30.750Z,7.02
2019-03-27T08:05:30.725Z,6.92
2019-03-27T08:06:30.645Z,7.07
2019-03-27T08:07:30.593Z,7.02
2019-03-27T08:08:30.539Z,6.96
2019-03-27T08:09:30.482Z,6.93
2019-03-27T08:10:30.454Z,6.88
2019-03-27T08:11:30.490Z,6.89
2019-03-27T08:12:30.320Z,6.77
2019-03-27T08:13:30.269Z,6.85
2019-03-27T08:14:30.209Z,6.83
2019-03-27T08:15:30.182Z,6.92
2019-03-27T08:16:30.107Z,6.81
2019-03-27T08:17:30.134Z,6.95
2019-03-27T08:18:29.991Z,6.92
2019-03-27T08:19:29.947Z,6.93
2019-03-27T08:20:29.914Z,6.81
2019-03-27T08:21:31.346Z,6.89
2019-03-27T08:22:29.778Z,6.99
2019-03-27T08:23:29.730Z,6.85
2019-03-27T08:24:29.675Z,6.77
2019-03-27T08:25:29.647Z,6.91
2019-03-27T08:26:29.592Z,6.93
2019-03-27T08:27:29.519Z,6.91
2019-03-27T08:28:29.466Z,6.98
2019-03-27T08:29:29.403Z,7.03
2019-03-27T08:30:29.376Z,7.02
2019-03-27T08:31:29.295Z,7.03
2019-03-27T08:32:29.245Z,7.02
2019-03-27T08:33:29.181Z,7.10
2019-03-27T08:34:29.130Z,7.20
2019-03-27T08:35:29.097Z,7.20
2019-03-27T08:36:29.024Z,7.29
2019-03-27T08:37:28.971Z,7.23
2019-03-27T08:38:28.920Z,7.21
2019-03-27T08:39:28.860Z,7.26
2019-03-27T08:40:28.834Z,7.21
2019-03-27T08:41:28.753Z,7.42
2019-03-27T08:42:28.703Z,7.44
2019-03-27T08:43:28.642Z,7.46
2019-03-27T08:44:28.588Z,7.60
2019-03-27T08:45:28.584Z,7.60
2019-03-27T08:46:28.480Z,7.54
2019-03-27T08:47:28.430Z,7.60
2019-03-27T08:48:28.383Z,7.59
2019-03-27T08:49:28.326Z,7.62
2019-03-27T08:50:28.269Z,7.66
2019-03-27T08:51:28.236Z,7.73
2019-03-27T08:52:28.163Z,7.76
2019-03-27T08:53:28.110Z,7.83
2019-03-27T08:54:28.058Z,7.73
2019-03-27T08:55:27.998Z,7.78
2019-03-27T08:56:27.978Z,7.79
2019-03-27T08:57:27.895Z,7.73
2019-03-27T08:58:27.837Z,7.76
2019-03-27T08:59:27.782Z,7.76
2019-03-27T09:00:27.725Z,7.75
2019-03-27T09:01:27.699Z,7.69
2019-03-27T09:02:27.625Z,7.72
2019-03-27T09:03:27.562Z,7.73
2019-03-27T09:04:27.522Z,7.73
2019-03-27T09:05:27.464Z,7.79
2019-03-27T09:06:33.469Z,7.68
2019-03-27T09:07:27.354Z,7.41
2019-03-27T09:08:27.374Z,7.62
2019-03-27T09:09:27.243Z,7.49
2019-03-27T09:10:27.191Z,7.47
2019-03-27T09:11:27.163Z,7.59
2019-03-27T09:12:27.084Z,7.68
2019-03-27T09:13:27.032Z,7.73
2019-03-27T09:14:26.977Z,7.73
2019-03-27T09:15:26.922Z,7.70
2019-03-27T09:16:26.894Z,7.76
2019-03-27T09:17:26.817Z,7.70
2019-03-27T09:18:26.764Z,7.78
2019-03-27T09:19:35.520Z,7.91
2019-03-27T09:20:26.659Z,7.94
2019-03-27T09:21:26.625Z,8.08
2019-03-27T09:22:26.549Z,8.05
2019-03-27T09:23:26.495Z,8.12
2019-03-27T09:24:26.443Z,8.12
2019-03-27T09:25:26.388Z,8.16
2019-03-27T09:26:26.357Z,8.38
2019-03-27T09:27:26.278Z,8.33
2019-03-27T09:28:26.231Z,8.30
2019-03-27T09:29:26.175Z,8.38
2019-03-27T09:30:26.119Z,8.42
2019-03-27T09:31:26.092Z,8.48
2019-03-27T09:32:26.016Z,8.44
2019-03-27T09:33:25.961Z,8.47
2019-03-27T09:34:25.909Z,8.59
2019-03-27T09:35:25.856Z,8.64
2019-03-27T09:36:25.822Z,8.54
2019-03-27T09:37:25.751Z,8.57
2019-03-27T09:38:25.702Z,8.60
2019-03-27T09:39:25.636Z,8.82
2019-03-27T09:40:25.590Z,8.85
2019-03-27T09:41:25.559Z,8.77
2019-03-27T09:42:25.485Z,8.69
2019-03-27T09:43:25.434Z,8.82
2019-03-27T09:44:25.376Z,8.84
2019-03-27T09:45:25.330Z,8.82
2019-03-27T09:46:25.293Z,8.78
2019-03-27T09:47:25.224Z,8.78
2019-03-27T09:48:25.167Z,8.78
2019-03-27T09:49:25.114Z,8.80
2019-03-27T09:50:25.059Z,8.82
2019-03-27T09:51:25.032Z,8.81
2019-03-27T09:52:24.954Z,8.90
2019-03-27T09:53:24.910Z,8.90
2019-03-27T09:54:24.855Z,8.98
2019-03-27T09:55:24.798Z,8.96
2019-03-27T09:56:24.769Z,8.99
2019-03-27T09:57:24.692Z,9.11
2019-03-27T09:58:24.645Z,9.16
2019-03-27T09:59:24.592Z,9.34
2019-03-27T10:00:24.542Z,9.43
2019-03-27T10:01:24.506Z,9.32
2019-03-27T10:02:24.434Z,9.36
2019-03-27T10:03:24.380Z,9.33
2019-03-27T10:04:24.323Z,9.37
2019-03-27T10:05:24.351Z,9.47
2019-03-27T10:06:24.242Z,9.61
2019-03-27T10:07:24.169Z,9.58
2019-03-27T10:08:24.118Z,9.49
2019-03-27T10:09:24.066Z,9.33
2019-03-27T10:10:24.014Z,9.33
2019-03-27T10:11:24.031Z,9.28
2019-03-27T10:12:23.916Z,9.42
2019-03-27T10:13:23.853Z,9.44
2019-03-27T10:14:23.802Z,9.44
2019-03-27T10:15:23.750Z,9.62
2019-03-27T10:16:23.705Z,9.67
2019-03-27T10:17:23.673Z,9.76
2019-03-27T10:18:23.597Z,9.82
2019-03-27T10:19:23.541Z,9.83
2019-03-27T10:20:23.497Z,9.67
2019-03-27T10:21:23.442Z,9.65
2019-03-27T10:22:23.414Z,9.47
2019-03-27T10:23:23.336Z,9.43
2019-03-27T10:24:23.291Z,9.47
2019-03-27T10:25:23.233Z,9.49
2019-03-27T10:26:23.185Z,9.59
2019-03-27T10:27:23.161Z,9.61
2019-03-27T10:28:23.076Z,9.64
2019-03-27T10:29:23.032Z,9.80
2019-03-27T10:30:22.971Z,9.79
2019-03-27T10:31:22.924Z,9.77
2019-03-27T10:32:22.888Z,9.69
2019-03-27T10:33:22.825Z,9.80
2019-03-27T10:34:22.761Z,9.86
2019-03-27T10:35:22.713Z,9.86
2019-03-27T10:36:22.666Z,9.70
2019-03-27T10:37:22.641Z,9.65
2019-03-27T10:38:22.567Z,9.54
2019-03-27T10:39:22.512Z,9.49
2019-03-27T10:40:22.458Z,9.43
2019-03-27T10:41:22.402Z,9.44
2019-03-27T10:42:22.374Z,9.44
2019-03-27T10:43:22.299Z,9.54
2019-03-27T10:44:22.247Z,9.57
2019-03-27T10:45:22.194Z,9.37
2019-03-27T10:46:22.145Z,9.26
2019-03-27T10:47:22.117Z,9.36
2019-03-27T10:48:22.038Z,9.36
2019-03-27T10:49:21.985Z,9.34
2019-03-27T10:50:21.944Z,9.32
2019-03-27T10:51:21.889Z,9.37
2019-03-27T10:52:21.869Z,9.47
2019-03-27T10:53:21.774Z,9.51
2019-03-27T10:54:21.722Z,9.49
2019-03-27T10:55:21.667Z,9.49
2019-03-27T10:56:21.615Z,9.55
2019-03-27T10:57:21.585Z,9.44
2019-03-27T10:58:21.510Z,9.46
2019-03-27T10:59:21.455Z,9.44
2019-03-27T11:00:21.402Z,9.46
2019-03-27T11:01:21.362Z,9.42
2019-03-27T11:02:21.362Z,9.62
2019-03-27T11:03:21.248Z,9.75
2019-03-27T11:04:21.195Z,9.93
2019-03-27T11:05:21.136Z,9.98
2019-03-27T11:06:21.085Z,10.08
2019-03-27T11:07:21.068Z,10.16
2019-03-27T11:08:20.971Z,10.23
2019-03-27T11:09:20.927Z,10.26
2019-03-27T11:10:20.868Z,10.15
2019-03-27T11:11:20.820Z,10.00
2019-03-27T11:12:20.784Z,9.98
2019-03-27T11:13:20.714Z,9.91
2019-03-27T11:14:20.662Z,9.94
2019-03-27T11:15:20.610Z,9.97
2019-03-27T11:16:20.556Z,9.86
2019-03-27T11:17:20.524Z,9.91
2019-03-27T11:18:20.450Z,9.91
2019-03-27T11:19:20.397Z,9.95
2019-03-27T11:20:30.339Z,9.97
2019-03-27T11:21:20.296Z,10.10
2019-03-27T11:22:20.268Z,10.37
2019-03-27T11:23:20.183Z,10.48
2019-03-27T11:24:20.136Z,10.48
2019-03-27T11:25:20.080Z,10.54
2019-03-27T11:26:20.034Z,10.59
2019-03-27T11:27:20.005Z,10.54
2019-03-27T11:28:19.939Z,10.43
2019-03-27T11:29:19.898Z,10.35
2019-03-27T11:30:19.816Z,10.28
2019-03-27T11:31:19.764Z,10.40
2019-03-27T11:32:19.712Z,10.33
2019-03-27T11:33:19.685Z,10.23
2019-03-27T11:34:19.605Z,10.23
2019-03-27T11:35:19.557Z,10.23
2019-03-27T11:36:19.503Z,10.20
2019-03-27T11:37:19.452Z,10.22
2019-03-27T11:38:19.416Z,10.20
2019-03-27T11:39:19.341Z,10.33
2019-03-27T11:40:19.285Z,10.53
2019-03-27T11:41:19.243Z,10.60
2019-03-27T11:42:19.198Z,10.65
2019-03-27T11:43:19.156Z,10.71
2019-03-27T11:44:19.083Z,10.67
2019-03-27T11:45:19.024Z,10.71
2019-03-27T11:46:18.977Z,10.65
2019-03-27T11:47:18.923Z,10.75
2019-03-27T11:48:18.903Z,10.92
2019-03-27T11:49:18.826Z,11.00
2019-03-27T11:50:18.769Z,10.93
2019-03-27T11:51:18.708Z,10.97
2019-03-27T11:52:18.674Z,11.03
2019-03-27T11:53:18.635Z,10.97
2019-03-27T11:54:18.558Z,11.00
2019-03-27T11:55:18.506Z,10.79
2019-03-27T11:56:18.451Z,10.71
2019-03-27T11:57:18.409Z,10.60
2019-03-27T11:58:18.373Z,10.68
2019-03-27T11:59:18.296Z,10.87
2019-03-27T12:00:18.247Z,10.87
2019-03-27T12:01:18.204Z,10.90
2019-03-27T12:02:18.139Z,11.04
2019-03-27T12:03:18.119Z,11.03
2019-03-27T12:04:18.046Z,11.00
2019-03-27T12:05:17.992Z,11.11
2019-03-27T12:06:17.934Z,11.04
2019-03-27T12:07:17.878Z,11.03
2019-03-27T12:08:17.855Z,11.11
2019-03-27T12:09:17.794Z,11.19
2019-03-27T12:10:17.728Z,11.08
2019-03-27T12:11:17.672Z,11.17
2019-03-27T12:12:17.685Z,11.23
2019-03-27T12:13:17.626Z,11.40
2019-03-27T12:14:17.523Z,11.43
2019-03-27T12:15:17.475Z,11.46
2019-03-27T12:16:17.421Z,11.50
2019-03-27T12:17:17.372Z,11.51
2019-03-27T12:18:17.346Z,11.53
2019-03-27T12:19:17.262Z,11.51
2019-03-27T12:20:17.209Z,11.62
2019-03-27T12:21:17.164Z,11.51
2019-03-27T12:22:17.112Z,11.29
2019-03-27T12:23:17.173Z,11.20
2019-03-27T12:24:17.070Z,11.17
2019-03-27T12:25:17.116Z,11.12
2019-03-27T12:26:16.902Z,11.17
2019-03-27T12:27:16.851Z,11.12
2019-03-27T12:28:16.830Z,11.08
2019-03-27T12:29:18.187Z,11.01
2019-03-27T12:30:16.701Z,10.93
2019-03-27T12:31:16.660Z,10.90
2019-03-27T12:32:16.602Z,10.77
2019-03-27T12:33:16.570Z,10.75
2019-03-27T12:34:16.495Z,10.78
2019-03-27T12:35:16.450Z,10.45
2019-03-27T12:36:16.392Z,10.31
2019-03-27T12:37:16.336Z,10.33
2019-03-27T12:38:16.309Z,10.34
2019-03-27T12:39:16.241Z,10.35
2019-03-27T12:40:16.179Z,10.22
2019-03-27T12:41:16.142Z,10.27
2019-03-27T12:42:16.081Z,10.13
2019-03-27T12:43:16.048Z,10.12
2019-03-27T12:44:15.977Z,10.02
2019-03-27T12:45:15.926Z,10.00
2019-03-27T12:46:15.873Z,9.95
2019-03-27T12:47:15.829Z,9.97
2019-03-27T12:48:15.801Z,10.06
2019-03-27T12:49:15.715Z,10.12
2019-03-27T12:50:15.658Z,10.10
2019-03-27T12:51:15.608Z,10.22
2019-03-27T12:52:15.553Z,10.15
2019-03-27T12:53:15.509Z,10.15
2019-03-27T12:54:15.482Z,10.12
2019-03-27T12:55:15.512Z,10.18
2019-03-27T12:56:15.350Z,10.12
2019-03-27T12:57:15.298Z,10.13
2019-03-27T12:58:15.249Z,10.22
2019-03-27T12:59:15.219Z,10.19
2019-03-27T13:00:15.143Z,10.13
2019-03-27T13:01:15.096Z,10.23
2019-03-27T13:02:15.035Z,10.22
2019-03-27T13:03:14.985Z,10.30
2019-03-27T13:04:14.956Z,10.48
2019-03-27T13:05:14.881Z,10.43
2019-03-27T13:06:14.826Z,10.57
2019-03-27T13:07:14.775Z,10.64
2019-03-27T13:08:14.720Z,10.60
2019-03-27T13:09:14.699Z,10.67
2019-03-27T13:10:14.617Z,10.68
2019-03-27T13:11:14.565Z,10.72
2019-03-27T13:12:14.533Z,10.68
2019-03-27T13:13:14.463Z,10.64
2019-03-27T13:14:14.440Z,10.68
2019-03-27T13:15:14.357Z,10.67
2019-03-27T13:16:14.308Z,10.65
2019-03-27T13:17:14.259Z,10.64
2019-03-27T13:18:14.203Z,10.54
2019-03-27T13:19:14.173Z,10.62
2019-03-27T13:20:14.099Z,10.70